Search for the current weather situation

Metar

Metar
TNCA 211000Z 08011KT 9999 FEW017 24/22 Q1015 NOSIG
Decoded Metar

TAF

TAF
TNCA 211000Z 08011KT 9999 FEW017 24/22 Q1015 NOSIG
Decoded TAF
Top